Terminal Aerodrome Forecast
Issued by NWS

Home | Current Version | Previous Version | Graphics & Text | Print | Product List | Glossary On
Versions: 1 2 3 4 5 6 7 8 9 10 11 12 13 14 15 16 17 18 19 20 21 22 23 24 25
000
FTUS43 KABR 262321
TAFATY
TAF
KATY 262321Z 2700/2724 VRB05KT P6SM VCSH BKN090
     FM270500 15006KT P6SM BKN110
     FM271700 19010KT P6SM BKN080
     FM272000 20010KT P6SM VCTS SCT080CB=

USA.gov is the U.S. government's official web portal to all federal, state and local government web resources and services.